x

Bay Of Campeche - 214 Nm Ne Of Veracruz, Mx (42055) Wave Buoy

5:50pm - Mon 29th Aug 2016 All times are UTC.

  • Sig Wave height 1.3ft
  • Swell Direction
  • Peak Period 6s
  • Average Period 4s
  • Wind
    9mph, 11mph gusts
  • Sea Temp 87°f
  • Air Temp 86°f
  • Sea Pressure 1011.9mb

More Historic Weather Station data

Upgrade to MSW Pro to gain access to the past 30 days of data for over 8000 Wavebouys and Weather Stations around the globe.

Join Pro

Comparision Forecast

View Surf forecast
   
Mon 08/29 5:50pm 1.3ft 6s 4s 9 11 mph 1011.9mb 87f 86f
4:50pm 1.3ft 6s 4s 9 11 mph 1012.1mb 87f 85f
3:50pm 1.3ft 7s 4s 7 9 mph 1012.2mb 87f 85f
2:50pm 1.3ft 6s 4s 4 7 mph 1011.8mb 87f 85f
1:50pm 1.3ft 6s 4s 4
mph
1011.3mb 87f 85f
12:50pm 1.3ft 6s 4s 2 4 mph 1010.5mb 87f 85f
11:50am 1.3ft 5s 4s  -  2 mph 1010.5mb 87f 85f
10:50am 1.3ft 6s 4s  -  2 mph 1010.3mb 87f 85f
9:50am 1.3ft 6s 4s 2 4 mph 1010.2mb 87f 85f
8:50am 1.6ft 6s 4s 4
mph
1010.9mb 87f 85f
7:50am 1.3ft 6s 4s 4
mph
1011.2mb 87f 85f
6:50am 1.3ft 6s 4s 7
mph
1011.5mb 87f 85f
5:50am 1.3ft 6s 4s 7 9 mph 1012.2mb 87f 85f
4:50am 1.3ft 6s 4s 7 9 mph 1012.4mb 87f 85f
3:50am 1.3ft 6s 4s 7 9 mph 1012.4mb 87f 86f
2:50am 1.6ft 6s 4s 9
mph
1011.7mb 87f 86f
1:50am 1.3ft 6s 4s 9 11 mph 1011.2mb 87f 86f
12:50am 1.3ft 6s 4s 11 13 mph 1010.5mb 88f 86f
Sun 08/28 11:50pm 1.3ft 6s 4s 9 11 mph 1010.2mb 88f 86f
10:50pm 1.3ft 6s 5s 13 16 mph 1010.5mb 89f 86f
9:50pm 1ft 6s 5s 7 11 mph 1011mb 89f 87f
8:50pm 1ft 6s 5s 9 11 mph 1011.3mb 89f 87f
7:50pm 1ft 6s 5s 7
mph
1012mb 90f 86f
6:50pm 1ft 6s 5s 2 7 mph 1012.6mb 90f 86f
5:50pm 1ft 6s 5s 2 4 mph 1013.1mb 89f 86f
4:50pm 1ft 6s 5s 2 4 mph 1013.4mb 88f 86f
3:50pm 1ft 7s 5s 4 7 mph 1013.4mb 87f 86f
2:50pm 1ft 7s 5s 2 4 mph 1013.3mb 87f 86f
1:50pm 1.3ft 7s 5s 4
mph
1013.1mb 87f 87f
12:50pm 1ft 7s 5s 7
mph
1012.9mb 87f 86f
11:50am 1.3ft 7s 5s 4
mph
1012.4mb 87f 85f
10:50am 1.3ft 7s 5s 4 7 mph 1012mb 87f 85f
9:50am 1.3ft 7s 5s 4 7 mph 1011.6mb 87f 85f
8:50am 1.3ft 7s 5s 4 7 mph 1011.8mb 87f 85f
7:50am 1.3ft 7s 5s 4 9 mph 1012mb 87f 85f
6:50am 1.3ft 6s 5s 7 9 mph 1012.4mb 87f 86f
5:50am 1.6ft 7s 5s 7
mph
1012.9mb 87f 86f
4:50am 1.6ft 7s 5s 7 9 mph 1013.2mb 87f 86f
3:50am 1.3ft 7s 5s 9 11 mph 1013.2mb 87f 86f
2:50am 1.6ft 6s 5s 9
mph
1012.6mb 88f 86f
1:50am 1.6ft 7s 5s 7 9 mph 1011.8mb 89f 86f
12:50am 1.6ft 6s 5s 7 9 mph 1011mb 89f 86f
Sat 08/27 11:50pm 1.6ft 6s 5s 4 7 mph 1010.7mb 90f 86f
10:50pm 1.6ft 7s 5s 4 7 mph 1010.7mb 90f 87f
9:50pm 1.6ft 7s 5s 4
mph
1011mb 91f 86f
8:50pm 1.6ft 6s 5s 2 4 mph 1011.3mb 91f 87f
7:50pm 1.6ft 7s 5s 4
mph
1012mb 91f 86f
6:50pm 2ft 6s 5s 2 4 mph 1012.5mb 91f 86f
5:50pm 2ft 7s 5s 2 4 mph 1013mb 89f 86f
4:50pm 2ft 6s 5s 4
mph
1013.4mb 88f 86f
3:50pm 2ft 7s 5s 4 7 mph 1013.4mb 87f 85f
2:50pm 2ft 6s 5s 4 7 mph 1013.3mb 87f 86f
1:50pm 2ft 6s 5s 7
mph
1012.9mb 86f 86f
12:50pm 2ft 7s 5s 4 7 mph 1012.2mb 86f 86f
11:50am 2ft 7s 5s 4 7 mph 1011.8mb 86f 85f
10:50am 1.6ft 6s 5s 4 7 mph 1011.5mb 86f 84f
9:50am 2ft 6s 5s 4 7 mph 1011.4mb 86f 85f
8:50am 2ft 6s 5s 2 4 mph 1011.7mb 86f 85f
7:50am 2ft 7s 5s 2
mph
1012.3mb 86f 85f
6:50am 2.5ft 6s 5s 2
mph
1012.5mb 86f 85f
5:50am 2.5ft 6s 5s 2
mph
1012.8mb 86f 85f
4:50am 2.5ft 7s 5s 4
mph
1013.1mb 86f 85f
3:50am 2.5ft 6s 5s 2
mph
1013.2mb 87f 85f
2:50am 2.5ft 7s 5s 4
mph
1013.2mb 87f 84f
1:50am 2.5ft 6s 5s 13 16 mph 1012.4mb 87f 84f
12:50am 1.6ft 5s 4s 9
mph
1011.7mb 87f 85f
Fri 08/26 11:50pm 1.6ft 5s 4s 4 7 mph 1011.5mb 87f 86f
10:50pm 2ft 5s 4s 13 18 mph 1011.5mb 87f 85f
9:50pm 1.6ft 5s 4s 18 22 mph 1011.4mb 87f 83f
8:50pm 1.6ft 5s 4s 9 13 mph 1011.8mb 88f 86f
7:50pm 1.3ft 5s 4s 9 11 mph 1012.3mb 88f 86f
6:50pm 1.6ft 5s 4s 7 11 mph 1013.1mb 88f 86f
5:50pm 1.6ft 5s 4s 7 11 mph 1013.8mb 87f 85f
4:50pm 1.3ft 5s 4s 7 9 mph 1014.3mb 87f 85f
3:50pm 1.3ft 6s 4s 4 7 mph 1014.1mb 87f 85f
2:50pm 1.3ft 6s 4s 4 7 mph 1013.6mb 86f 86f
1:50pm 1.3ft 6s 4s 4 7 mph 1013.4mb 86f 86f
12:50pm 1.3ft 6s 4s 4 7 mph 1013.2mb 86f 85f
11:50am 1.6ft 5s 4s 4
mph
1013.1mb 86f 85f
10:50am 1.3ft 6s 4s 4 7 mph 1013.1mb 86f 85f
9:50am 1.6ft 6s 4s 2 4 mph 1013.2mb 86f 85f
8:50am 1.6ft 6s 4s 2 4 mph 1013.4mb 86f 85f
7:50am 1.6ft 4s 4s 4
mph
1013.9mb 86f 85f
6:50am 1.6ft 3s 4s 4 7 mph 1014.1mb 86f 85f
5:50am 1.6ft 5s 4s 9
mph
1014.2mb 86f 85f
4:50am 1.6ft 5s 4s 11 13 mph 1014.7mb 86f 85f
3:50am 2ft 4s 4s 13 16 mph 1014.2mb 86f 85f
2:50am 1.6ft 5s 4s 11 13 mph 1014.1mb 86f 85f
1:50am 2ft 5s 4s 11
mph
1013.3mb 86f 85f
12:50am 2ft 5s 4s 11 13 mph 1013mb 86f 85f
Thu 08/25 11:50pm 2ft 5s 4s 13 16 mph 1012.9mb 86f 84f
10:50pm 2ft 5s 4s 11 13 mph 1013.1mb 86f 84f
9:50pm 2.5ft 5s 4s 16 18 mph 1013.3mb 86f 83f
8:50pm 2.5ft 5s 4s 11 13 mph 1013.7mb 87f 84f
7:50pm 2ft 5s 4s 11 13 mph 1013.9mb 87f 86f
6:50pm 2ft 5s 4s 11 13 mph 1014.5mb 87f 86f